sensor_id;sensor_type;location;lat;lon;timestamp;pressure;altitude;pressure_sealevel;temperature;humidity
10464;BME280;5279;42.048;24.638;2023-07-29T00:00:45;97218.69;;;20.85;47.83
10464;BME280;5279;42.048;24.638;2023-07-29T00:03:13;97216.63;;;20.81;45.68
10464;BME280;5279;42.048;24.638;2023-07-29T00:05:40;97217.56;;;20.61;45.76
10464;BME280;5279;42.048;24.638;2023-07-29T00:08:07;97206.16;;;20.66;45.68
10464;BME280;5279;42.048;24.638;2023-07-29T00:10:36;97204.31;;;20.66;45.06
10464;BME280;5279;42.048;24.638;2023-07-29T00:13:04;97204.50;;;20.65;46.71
10464;BME280;5279;42.048;24.638;2023-07-29T00:15:31;97206.03;;;20.54;46.65
10464;BME280;5279;42.048;24.638;2023-07-29T00:17:58;97206.47;;;20.51;46.67
10464;BME280;5279;42.048;24.638;2023-07-29T00:20:26;97201.53;;;20.48;45.44
10464;BME280;5279;42.048;24.638;2023-07-29T00:22:53;97202.72;;;20.52;47.33
10464;BME280;5279;42.048;24.638;2023-07-29T00:25:20;97208.94;;;20.53;45.02
10464;BME280;5279;42.048;24.638;2023-07-29T00:27:48;97205.59;;;20.57;45.51
10464;BME280;5279;42.048;24.638;2023-07-29T00:30:14;97200.97;;;20.64;45.23
10464;BME280;5279;42.048;24.638;2023-07-29T00:32:41;97207.59;;;20.68;44.74
10464;BME280;5279;42.048;24.638;2023-07-29T00:35:09;97205.50;;;20.70;44.01
10464;BME280;5279;42.048;24.638;2023-07-29T00:37:37;97204.03;;;20.75;44.52
10464;BME280;5279;42.048;24.638;2023-07-29T00:40:13;97196.72;;;20.82;44.57
10464;BME280;5279;42.048;24.638;2023-07-29T00:42:41;97207.06;;;20.85;43.97
10464;BME280;5279;42.048;24.638;2023-07-29T00:45:09;97199.19;;;20.83;45.32
10464;BME280;5279;42.048;24.638;2023-07-29T00:47:36;97197.94;;;20.86;45.30
10464;BME280;5279;42.048;24.638;2023-07-29T00:50:04;97199.00;;;20.85;46.24
10464;BME280;5279;42.048;24.638;2023-07-29T00:52:31;97198.59;;;20.81;46.52
10464;BME280;5279;42.048;24.638;2023-07-29T00:55:00;97197.91;;;20.61;47.37
10464;BME280;5279;42.048;24.638;2023-07-29T00:57:29;97194.97;;;20.69;46.95
10464;BME280;5279;42.048;24.638;2023-07-29T00:59:57;97194.84;;;20.57;47.74
10464;BME280;5279;42.048;24.638;2023-07-29T01:02:24;97201.53;;;20.48;48.39
10464;BME280;5279;42.048;24.638;2023-07-29T01:04:52;97194.75;;;20.39;48.45
10464;BME280;5279;42.048;24.638;2023-07-29T01:07:49;97190.81;;;20.35;48.79
10464;BME280;5279;42.048;24.638;2023-07-29T01:10:28;97200.84;;;20.15;52.40
10464;BME280;5279;42.048;24.638;2023-07-29T01:13:02;97192.28;;;19.87;51.44
10464;BME280;5279;42.048;24.638;2023-07-29T01:15:36;97194.78;;;19.82;50.84
10464;BME280;5279;42.048;24.638;2023-07-29T01:18:10;97194.78;;;19.82;51.63
10464;BME280;5279;42.048;24.638;2023-07-29T01:20:40;97190.00;;;19.84;52.76
10464;BME280;5279;42.048;24.638;2023-07-29T01:23:07;97192.53;;;19.72;53.08
10464;BME280;5279;42.048;24.638;2023-07-29T01:25:35;97196.84;;;19.80;50.40
10464;BME280;5279;42.048;24.638;2023-07-29T01:28:02;97198.69;;;19.86;51.49
10464;BME280;5279;42.048;24.638;2023-07-29T01:30:34;97202.59;;;19.90;51.46
10464;BME280;5279;42.048;24.638;2023-07-29T01:33:08;97202.59;;;19.90;50.57
10464;BME280;5279;42.048;24.638;2023-07-29T01:35:42;97198.69;;;19.86;50.18
10464;BME280;5279;42.048;24.638;2023-07-29T01:38:14;97210.91;;;19.82;51.35
10464;BME280;5279;42.048;24.638;2023-07-29T01:40:46;97212.38;;;19.78;52.21
10464;BME280;5279;42.048;24.638;2023-07-29T01:43:14;97215.25;;;19.83;52.41
10464;BME280;5279;42.048;24.638;2023-07-29T01:45:43;97217.31;;;19.81;54.03
10464;BME280;5279;42.048;24.638;2023-07-29T01:48:10;97207.19;;;19.76;53.11
10464;BME280;5279;42.048;24.638;2023-07-29T01:50:37;97215.25;;;19.76;52.94
10464;BME280;5279;42.048;24.638;2023-07-29T01:53:04;97215.06;;;19.71;52.67
10464;BME280;5279;42.048;24.638;2023-07-29T01:55:31;97210.97;;;19.55;54.16
10464;BME280;5279;42.048;24.638;2023-07-29T01:58:00;97212.63;;;19.56;53.55
10464;BME280;5279;42.048;24.638;2023-07-29T02:00:27;97216.16;;;19.50;54.54
10464;BME280;5279;42.048;24.638;2023-07-29T02:02:54;97222.97;;;19.46;54.27
10464;BME280;5279;42.048;24.638;2023-07-29T02:05:21;97215.56;;;19.42;54.95
10464;BME280;5279;42.048;24.638;2023-07-29T02:07:48;97219.66;;;19.31;56.30
10464;BME280;5279;42.048;24.638;2023-07-29T02:10:15;97216.38;;;19.29;55.50
10464;BME280;5279;42.048;24.638;2023-07-29T02:12:42;97224.03;;;19.26;54.58
10464;BME280;5279;42.048;24.638;2023-07-29T02:15:11;97221.53;;;19.24;52.32
10464;BME280;5279;42.048;24.638;2023-07-29T02:17:41;97218.84;;;19.24;50.84
10464;BME280;5279;42.048;24.638;2023-07-29T02:20:09;97216.56;;;19.34;50.58
10464;BME280;5279;42.048;24.638;2023-07-29T02:22:36;97212.25;;;19.40;52.98
10464;BME280;5279;42.048;24.638;2023-07-29T02:25:04;97222.78;;;19.41;55.79
10464;BME280;5279;42.048;24.638;2023-07-29T02:27:31;97223.78;;;19.27;54.63
10464;BME280;5279;42.048;24.638;2023-07-29T02:29:58;97224.63;;;19.34;52.10
10464;BME280;5279;42.048;24.638;2023-07-29T02:32:27;97225.03;;;19.31;54.36
10464;BME280;5279;42.048;24.638;2023-07-29T02:34:54;97220.50;;;19.25;53.89
10464;BME280;5279;42.048;24.638;2023-07-29T02:37:22;97229.59;;;19.24;55.77
10464;BME280;5279;42.048;24.638;2023-07-29T02:39:49;97236.19;;;19.22;54.43
10464;BME280;5279;42.048;24.638;2023-07-29T02:42:16;97237.03;;;19.22;53.53
10464;BME280;5279;42.048;24.638;2023-07-29T02:44:43;97236.84;;;19.17;53.81
10464;BME280;5279;42.048;24.638;2023-07-29T02:47:10;97230.41;;;19.18;54.98
10464;BME280;5279;42.048;24.638;2023-07-29T02:49:39;97238.06;;;19.21;55.37
10464;BME280;5279;42.048;24.638;2023-07-29T02:52:06;97238.28;;;19.13;55.48
10464;BME280;5279;42.048;24.638;2023-07-29T02:54:33;97234.16;;;19.10;55.88
10464;BME280;5279;42.048;24.638;2023-07-29T02:57:00;97228.78;;;18.97;54.48
10464;BME280;5279;42.048;24.638;2023-07-29T02:59:27;97232.50;;;19.03;54.67
10464;BME280;5279;42.048;24.638;2023-07-29T03:01:54;97222.16;;;19.00;53.86
10464;BME280;5279;42.048;24.638;2023-07-29T03:04:21;97229.19;;;19.01;58.81
10464;BME280;5279;42.048;24.638;2023-07-29T03:06:50;97231.03;;;19.00;59.29
10464;BME280;5279;42.048;24.638;2023-07-29T03:09:17;97236.66;;;19.05;55.54
10464;BME280;5279;42.048;24.638;2023-07-29T03:11:44;97245.91;;;19.03;58.14
10464;BME280;5279;42.048;24.638;2023-07-29T03:14:11;97243.88;;;19.05;54.60
10464;BME280;5279;42.048;24.638;2023-07-29T03:16:38;97249.84;;;18.94;54.16
10464;BME280;5279;42.048;24.638;2023-07-29T03:19:05;97234.97;;;18.91;57.26
10464;BME280;5279;42.048;24.638;2023-07-29T03:21:32;97244.25;;;18.89;56.15
10464;BME280;5279;42.048;24.638;2023-07-29T03:24:00;97254.38;;;18.87;55.97
10464;BME280;5279;42.048;24.638;2023-07-29T03:26:27;97251.09;;;18.98;54.39
10464;BME280;5279;42.048;24.638;2023-07-29T03:28:54;97251.09;;;18.98;55.34
10464;BME280;5279;42.048;24.638;2023-07-29T03:31:21;97246.13;;;19.01;56.13
10464;BME280;5279;42.048;24.638;2023-07-29T03:33:48;97255.22;;;19.07;52.08
10464;BME280;5279;42.048;24.638;2023-07-29T03:36:15;97251.50;;;19.21;55.39
10464;BME280;5279;42.048;24.638;2023-07-29T03:38:42;97253.16;;;19.22;54.88
10464;BME280;5279;42.048;24.638;2023-07-29T03:41:12;97252.94;;;19.30;51.45
10464;BME280;5279;42.048;24.638;2023-07-29T03:43:39;97246.97;;;19.41;51.77
10464;BME280;5279;42.048;24.638;2023-07-29T03:46:06;97245.72;;;19.50;51.74
10464;BME280;5279;42.048;24.638;2023-07-29T03:48:33;97250.66;;;19.67;50.44
10464;BME280;5279;42.048;24.638;2023-07-29T03:51:00;97255.59;;;19.76;51.85
10464;BME280;5279;42.048;24.638;2023-07-29T03:53:27;97251.00;;;19.90;50.96
10464;BME280;5279;42.048;24.638;2023-07-29T03:55:54;97256.78;;;20.00;52.85
10464;BME280;5279;42.048;24.638;2023-07-29T03:58:23;97253.47;;;19.98;53.63
10464;BME280;5279;42.048;24.638;2023-07-29T04:00:50;97265.03;;;19.98;53.82
10464;BME280;5279;42.048;24.638;2023-07-29T04:03:17;97269.59;;;19.98;54.69
10464;BME280;5279;42.048;24.638;2023-07-29T04:05:44;97262.59;;;19.97;54.48
10464;BME280;5279;42.048;24.638;2023-07-29T04:08:11;97266.63;;;20.12;52.14
10464;BME280;5279;42.048;24.638;2023-07-29T04:10:38;97280.28;;;20.24;51.09
10464;BME280;5279;42.048;24.638;2023-07-29T04:13:05;97265.78;;;20.25;52.20
10464;BME280;5279;42.048;24.638;2023-07-29T04:15:34;97262.47;;;20.36;51.29
10464;BME280;5279;42.048;24.638;2023-07-29T04:18:01;97262.56;;;20.54;51.16
10464;BME280;5279;42.048;24.638;2023-07-29T04:20:29;97275.97;;;20.61;51.53
10464;BME280;5279;42.048;24.638;2023-07-29T04:22:56;97273.44;;;20.73;51.04
10464;BME280;5279;42.048;24.638;2023-07-29T04:25:23;97278.72;;;20.86;51.58
10464;BME280;5279;42.048;24.638;2023-07-29T04:27:49;97272.22;;;21.00;50.23
10464;BME280;5279;42.048;24.638;2023-07-29T04:30:16;97272.75;;;21.15;50.13
10464;BME280;5279;42.048;24.638;2023-07-29T04:32:45;97277.88;;;21.23;51.43
10464;BME280;5279;42.048;24.638;2023-07-29T04:35:14;97278.22;;;21.33;52.20
10464;BME280;5279;42.048;24.638;2023-07-29T04:37:41;97277.50;;;21.44;50.86
10464;BME280;5279;42.048;24.638;2023-07-29T04:40:08;97274.84;;;21.62;51.02
10464;BME280;5279;42.048;24.638;2023-07-29T04:42:36;97272.22;;;21.74;50.40
10464;BME280;5279;42.048;24.638;2023-07-29T04:45:04;97276.06;;;21.85;49.11
10464;BME280;5279;42.048;24.638;2023-07-29T04:47:31;97280.75;;;21.96;47.83
10464;BME280;5279;42.048;24.638;2023-07-29T04:50:00;97276.63;;;22.11;48.21
10464;BME280;5279;42.048;24.638;2023-07-29T04:52:27;97281.66;;;22.26;48.11
10464;BME280;5279;42.048;24.638;2023-07-29T04:54:54;97275.41;;;22.25;51.03
10464;BME280;5279;42.048;24.638;2023-07-29T04:57:21;97284.84;;;22.34;50.03
10464;BME280;5279;42.048;24.638;2023-07-29T04:59:48;97283.59;;;22.37;49.21
10464;BME280;5279;42.048;24.638;2023-07-29T05:02:15;97281.34;;;22.34;49.20
10464;BME280;5279;42.048;24.638;2023-07-29T05:04:42;97273.16;;;22.41;49.26
10464;BME280;5279;42.048;24.638;2023-07-29T05:07:10;97275.19;;;22.45;49.33
10464;BME280;5279;42.048;24.638;2023-07-29T05:09:37;97265.94;;;22.53;50.22
10464;BME280;5279;42.048;24.638;2023-07-29T05:12:05;97266.47;;;22.61;50.64
10464;BME280;5279;42.048;24.638;2023-07-29T05:14:32;97271.09;;;22.72;50.55
10464;BME280;5279;42.048;24.638;2023-07-29T05:16:59;97271.09;;;22.72;50.41
10464;BME280;5279;42.048;24.638;2023-07-29T05:19:26;97283.56;;;22.73;50.87
10464;BME280;5279;42.048;24.638;2023-07-29T05:21:53;97279.94;;;22.79;51.07
10464;BME280;5279;42.048;24.638;2023-07-29T05:24:22;97281.91;;;22.72;51.56
10464;BME280;5279;42.048;24.638;2023-07-29T05:26:49;97283.13;;;22.76;50.88
10464;BME280;5279;42.048;24.638;2023-07-29T05:29:16;97278.84;;;22.69;51.24
10464;BME280;5279;42.048;24.638;2023-07-29T05:31:43;97289.69;;;22.80;51.93
10464;BME280;5279;42.048;24.638;2023-07-29T05:34:10;97286.41;;;22.78;52.13
10464;BME280;5279;42.048;24.638;2023-07-29T05:36:37;97292.25;;;22.75;52.09
10464;BME280;5279;42.048;24.638;2023-07-29T05:39:04;97301.34;;;22.93;52.48
10464;BME280;5279;42.048;24.638;2023-07-29T05:41:34;97300.31;;;22.94;51.82
10464;BME280;5279;42.048;24.638;2023-07-29T05:44:01;97310.13;;;23.06;51.38
10464;BME280;5279;42.048;24.638;2023-07-29T05:46:28;97307.91;;;23.15;51.17
10464;BME280;5279;42.048;24.638;2023-07-29T05:48:55;97304.38;;;23.26;51.30
10464;BME280;5279;42.048;24.638;2023-07-29T05:51:22;97310.47;;;23.39;50.12
10464;BME280;5279;42.048;24.638;2023-07-29T05:53:49;97300.69;;;23.50;51.27
10464;BME280;5279;42.048;24.638;2023-07-29T05:56:16;97303.09;;;23.58;49.88
10464;BME280;5279;42.048;24.638;2023-07-29T05:58:44;97299.09;;;23.72;49.01
10464;BME280;5279;42.048;24.638;2023-07-29T06:01:11;97304.97;;;23.81;48.56
10464;BME280;5279;42.048;24.638;2023-07-29T06:03:38;97300.25;;;24.00;48.10
10464;BME280;5279;42.048;24.638;2023-07-29T06:06:05;97292.69;;;24.02;48.78
10464;BME280;5279;42.048;24.638;2023-07-29T06:08:33;97296.38;;;24.19;47.92
10464;BME280;5279;42.048;24.638;2023-07-29T06:11:00;97292.00;;;24.29;48.97
10464;BME280;5279;42.048;24.638;2023-07-29T06:13:27;97305.63;;;24.46;47.68
10464;BME280;5279;42.048;24.638;2023-07-29T06:15:56;97310.31;;;24.62;47.83
10464;BME280;5279;42.048;24.638;2023-07-29T06:18:23;97299.16;;;24.75;47.80
10464;BME280;5279;42.048;24.638;2023-07-29T06:20:51;97298.59;;;24.73;46.60
10464;BME280;5279;42.048;24.638;2023-07-29T06:23:18;97300.34;;;24.79;47.10
10464;BME280;5279;42.048;24.638;2023-07-29T06:25:45;97302.19;;;24.90;47.37
10464;BME280;5279;42.048;24.638;2023-07-29T06:28:12;97294.81;;;25.02;47.42
10464;BME280;5279;42.048;24.638;2023-07-29T06:30:39;97307.03;;;25.17;46.59
10464;BME280;5279;42.048;24.638;2023-07-29T06:33:07;97301.91;;;25.20;47.11
10464;BME280;5279;42.048;24.638;2023-07-29T06:35:35;97293.63;;;25.27;46.04
10464;BME280;5279;42.048;24.638;2023-07-29T06:38:02;97296.53;;;25.37;45.99
10464;BME280;5279;42.048;24.638;2023-07-29T06:40:29;97298.47;;;25.41;44.44
10464;BME280;5279;42.048;24.638;2023-07-29T06:42:55;97301.81;;;25.60;45.51
10464;BME280;5279;42.048;24.638;2023-07-29T06:45:22;97301.97;;;25.70;43.45
10464;BME280;5279;42.048;24.638;2023-07-29T06:47:49;97291.78;;;25.77;43.67
10464;BME280;5279;42.048;24.638;2023-07-29T06:50:18;97311.34;;;25.96;43.68
10464;BME280;5279;42.048;24.638;2023-07-29T06:52:45;97310.34;;;26.02;45.24
10464;BME280;5279;42.048;24.638;2023-07-29T06:55:12;97301.75;;;26.27;43.84
10464;BME280;5279;42.048;24.638;2023-07-29T06:57:39;97306.16;;;26.33;42.22
10464;BME280;5279;42.048;24.638;2023-07-29T07:00:07;97306.88;;;26.45;42.55
10464;BME280;5279;42.048;24.638;2023-07-29T07:02:34;97307.56;;;26.57;41.34
10464;BME280;5279;42.048;24.638;2023-07-29T07:05:01;97307.66;;;26.62;41.56
10464;BME280;5279;42.048;24.638;2023-07-29T07:07:29;97297.38;;;26.69;41.06
10464;BME280;5279;42.048;24.638;2023-07-29T07:09:56;97287.03;;;26.88;41.07
10464;BME280;5279;42.048;24.638;2023-07-29T07:12:23;97292.91;;;27.01;40.91
10464;BME280;5279;42.048;24.638;2023-07-29T07:14:50;97302.34;;;27.21;40.90
10464;BME280;5279;42.048;24.638;2023-07-29T07:17:17;97296.91;;;27.47;39.96
10464;BME280;5279;42.048;24.638;2023-07-29T07:19:44;97295.88;;;27.53;40.04
10464;BME280;5279;42.048;24.638;2023-07-29T07:22:18;97301.38;;;27.63;38.72
10464;BME280;5279;42.048;24.638;2023-07-29T07:24:46;97294.84;;;27.64;39.04
10464;BME280;5279;42.048;24.638;2023-07-29T07:27:13;97295.25;;;27.83;40.59
10464;BME280;5279;42.048;24.638;2023-07-29T07:29:40;97285.66;;;28.07;39.81
10464;BME280;5279;42.048;24.638;2023-07-29T07:32:07;97284.09;;;28.21;38.51
10464;BME280;5279;42.048;24.638;2023-07-29T07:34:34;97279.25;;;28.34;37.19
10464;BME280;5279;42.048;24.638;2023-07-29T07:37:01;97282.31;;;28.42;37.14
10464;BME280;5279;42.048;24.638;2023-07-29T07:39:35;97284.53;;;28.55;37.34
10464;BME280;5279;42.048;24.638;2023-07-29T07:42:04;97282.09;;;28.59;36.11
10464;BME280;5279;42.048;24.638;2023-07-29T07:44:31;97274.00;;;28.79;36.57
10464;BME280;5279;42.048;24.638;2023-07-29T07:46:58;97274.56;;;28.81;35.53
10464;BME280;5279;42.048;24.638;2023-07-29T07:49:25;97271.31;;;28.89;35.71
10464;BME280;5279;42.048;24.638;2023-07-29T07:51:52;97280.06;;;29.06;36.19
10464;BME280;5279;42.048;24.638;2023-07-29T07:54:19;97269.72;;;29.18;35.81
10464;BME280;5279;42.048;24.638;2023-07-29T07:56:46;97255.31;;;29.33;34.76
10464;BME280;5279;42.048;24.638;2023-07-29T07:59:14;97255.03;;;29.30;33.99
10464;BME280;5279;42.048;24.638;2023-07-29T08:01:41;97260.47;;;29.50;34.43
10464;BME280;5279;42.048;24.638;2023-07-29T08:10:52;97250.63;;;29.64;33.88
10464;BME280;5279;42.048;24.638;2023-07-29T08:13:19;97249.00;;;29.73;34.20
10464;BME280;5279;42.048;24.638;2023-07-29T08:15:49;97246.53;;;29.92;33.36
10464;BME280;5279;42.048;24.638;2023-07-29T08:18:16;97244.03;;;30.10;34.76
10464;BME280;5279;42.048;24.638;2023-07-29T08:20:51;97243.44;;;30.23;33.26
10464;BME280;5279;42.048;24.638;2023-07-29T08:23:18;97250.25;;;30.31;33.25
10464;BME280;5279;42.048;24.638;2023-07-29T08:25:51;97242.28;;;30.55;32.14
10464;BME280;5279;42.048;24.638;2023-07-29T08:28:18;97224.97;;;30.64;32.96
10464;BME280;5279;42.048;24.638;2023-07-29T08:30:44;97224.09;;;30.79;32.95
10464;BME280;5279;42.048;24.638;2023-07-29T08:33:13;97232.72;;;31.01;32.15
10464;BME280;5279;42.048;24.638;2023-07-29T08:35:40;97238.16;;;31.06;32.12
10464;BME280;5279;42.048;24.638;2023-07-29T08:38:07;97231.47;;;31.22;32.95
10464;BME280;5279;42.048;24.638;2023-07-29T08:40:34;97228.13;;;31.30;31.53
10464;BME280;5279;42.048;24.638;2023-07-29T08:43:04;97218.16;;;31.45;31.23
10464;BME280;5279;42.048;24.638;2023-07-29T08:45:34;97222.69;;;31.59;33.46
10464;BME280;5279;42.048;24.638;2023-07-29T08:48:03;97222.38;;;31.66;30.94
10464;BME280;5279;42.048;24.638;2023-07-29T08:50:33;97215.41;;;31.78;31.56
10464;BME280;5279;42.048;24.638;2023-07-29T08:53:03;97219.97;;;31.88;30.16
10464;BME280;5279;42.048;24.638;2023-07-29T08:55:31;97220.19;;;31.91;31.07
10464;BME280;5279;42.048;24.638;2023-07-29T08:57:59;97221.00;;;31.92;29.37
10464;BME280;5279;42.048;24.638;2023-07-29T09:00:27;97220.53;;;31.85;28.93
10464;BME280;5279;42.048;24.638;2023-07-29T09:02:54;97226.03;;;31.85;29.24
10464;BME280;5279;42.048;24.638;2023-07-29T09:05:23;97224.94;;;31.81;30.62
10464;BME280;5279;42.048;24.638;2023-07-29T09:07:52;97224.19;;;32.04;31.88
10464;BME280;5279;42.048;24.638;2023-07-29T09:10:21;97214.22;;;32.13;29.42
10464;BME280;5279;42.048;24.638;2023-07-29T09:12:48;97211.69;;;32.17;30.33
10464;BME280;5279;42.048;24.638;2023-07-29T09:15:26;97216.31;;;32.21;29.19
10464;BME280;5279;42.048;24.638;2023-07-29T09:17:55;97205.28;;;32.26;28.75
10464;BME280;5279;42.048;24.638;2023-07-29T09:20:25;97199.09;;;32.39;28.19
10464;BME280;5279;42.048;24.638;2023-07-29T09:22:57;97194.13;;;32.41;27.56
10464;BME280;5279;42.048;24.638;2023-07-29T09:25:26;97200.75;;;32.40;28.26
10464;BME280;5279;42.048;24.638;2023-07-29T09:27:58;97198.84;;;32.60;28.43
10464;BME280;5279;42.048;24.638;2023-07-29T09:30:26;97193.28;;;32.83;27.76
10464;BME280;5279;42.048;24.638;2023-07-29T09:32:55;97191.22;;;32.94;27.19
10464;BME280;5279;42.048;24.638;2023-07-29T09:35:22;97194.47;;;32.96;27.93
10464;BME280;5279;42.048;24.638;2023-07-29T09:37:50;97176.75;;;33.07;27.36
10464;BME280;5279;42.048;24.638;2023-07-29T09:40:18;97174.19;;;33.29;28.03
10464;BME280;5279;42.048;24.638;2023-07-29T09:42:49;97180.13;;;33.36;26.39
10464;BME280;5279;42.048;24.638;2023-07-29T09:45:21;97178.09;;;33.42;26.32
10464;BME280;5279;42.048;24.638;2023-07-29T09:47:48;97172.81;;;33.45;26.06
10464;BME280;5279;42.048;24.638;2023-07-29T09:50:15;97173.88;;;33.49;28.78
10464;BME280;5279;42.048;24.638;2023-07-29T09:52:43;97178.19;;;33.69;27.37
10464;BME280;5279;42.048;24.638;2023-07-29T09:55:12;97176.09;;;33.80;26.21
10464;BME280;5279;42.048;24.638;2023-07-29T09:57:41;97184.50;;;33.70;27.21
10464;BME280;5279;42.048;24.638;2023-07-29T10:00:11;97174.34;;;33.84;26.98
10464;BME280;5279;42.048;24.638;2023-07-29T10:02:39;97173.53;;;33.97;26.75
10464;BME280;5279;42.048;24.638;2023-07-29T10:05:07;97164.41;;;34.01;26.89
10464;BME280;5279;42.048;24.638;2023-07-29T10:07:36;97166.63;;;33.86;26.94
10464;BME280;5279;42.048;24.638;2023-07-29T10:10:04;97172.13;;;33.86;27.23
10464;BME280;5279;42.048;24.638;2023-07-29T10:12:32;97163.94;;;33.81;26.81
10464;BME280;5279;42.048;24.638;2023-07-29T10:15:04;97169.28;;;34.04;27.00
10464;BME280;5279;42.048;24.638;2023-07-29T10:17:34;97158.69;;;34.25;27.27
10464;BME280;5279;42.048;24.638;2023-07-29T10:20:01;97165.06;;;34.48;26.92
10464;BME280;5279;42.048;24.638;2023-07-29T10:22:35;97163.97;;;34.49;25.97
10464;BME280;5279;42.048;24.638;2023-07-29T10:25:04;97157.94;;;34.61;25.63
10464;BME280;5279;42.048;24.638;2023-07-29T10:27:38;97159.59;;;34.84;25.72
10464;BME280;5279;42.048;24.638;2023-07-29T10:30:11;97153.47;;;34.87;25.33
10464;BME280;5279;42.048;24.638;2023-07-29T10:32:38;97154.50;;;34.91;25.87
10464;BME280;5279;42.048;24.638;2023-07-29T10:35:08;97151.28;;;34.75;25.68
10464;BME280;5279;42.048;24.638;2023-07-29T10:37:36;97144.59;;;34.68;26.50
10464;BME280;5279;42.048;24.638;2023-07-29T10:40:07;97140.88;;;34.72;25.41
10464;BME280;5279;42.048;24.638;2023-07-29T10:42:34;97136.19;;;34.73;24.84
10464;BME280;5279;42.048;24.638;2023-07-29T10:45:17;97133.47;;;34.95;26.05
10464;BME280;5279;42.048;24.638;2023-07-29T10:47:44;97137.88;;;35.18;25.24
10464;BME280;5279;42.048;24.638;2023-07-29T10:50:18;97139.25;;;35.29;26.03
10464;BME280;5279;42.048;24.638;2023-07-29T10:52:49;97133.28;;;35.36;25.23
10464;BME280;5279;42.048;24.638;2023-07-29T10:55:28;97126.69;;;35.45;24.21
10464;BME280;5279;42.048;24.638;2023-07-29T10:58:07;97125.19;;;35.61;24.10
10464;BME280;5279;42.048;24.638;2023-07-29T11:00:35;97122.19;;;35.49;23.61
10464;BME280;5279;42.048;24.638;2023-07-29T11:03:05;97125.19;;;35.61;23.69
10464;BME280;5279;42.048;24.638;2023-07-29T11:05:49;97122.56;;;35.56;24.07
10464;BME280;5279;42.048;24.638;2023-07-29T11:08:21;97119.09;;;35.51;23.54
10464;BME280;5279;42.048;24.638;2023-07-29T11:11:01;97118.41;;;35.15;23.24
10464;BME280;5279;42.048;24.638;2023-07-29T11:13:29;97115.06;;;35.04;23.36
10464;BME280;5279;42.048;24.638;2023-07-29T11:15:58;97106.31;;;35.02;25.38
10464;BME280;5279;42.048;24.638;2023-07-29T11:18:28;97111.44;;;34.95;25.28
10464;BME280;5279;42.048;24.638;2023-07-29T11:20:56;97103.66;;;34.97;24.94
10464;BME280;5279;42.048;24.638;2023-07-29T11:23:28;97116.03;;;35.22;24.37
10464;BME280;5279;42.048;24.638;2023-07-29T11:25:56;97103.31;;;35.34;24.89
10464;BME280;5279;42.048;24.638;2023-07-29T11:28:24;97104.78;;;35.40;24.52
10464;BME280;5279;42.048;24.638;2023-07-29T11:30:51;97101.31;;;35.57;25.26
10464;BME280;5279;42.048;24.638;2023-07-29T11:33:22;97099.09;;;35.59;23.55
10464;BME280;5279;42.048;24.638;2023-07-29T11:35:50;97083.97;;;35.56;22.34
10464;BME280;5279;42.048;24.638;2023-07-29T11:38:18;97089.03;;;35.32;22.71
10464;BME280;5279;42.048;24.638;2023-07-29T11:40:54;97092.66;;;35.41;23.50
10464;BME280;5279;42.048;24.638;2023-07-29T11:43:21;97086.59;;;35.61;25.07
10464;BME280;5279;42.048;24.638;2023-07-29T11:45:48;97082.56;;;35.68;23.67
10464;BME280;5279;42.048;24.638;2023-07-29T11:48:15;97074.03;;;35.78;23.64
10464;BME280;5279;42.048;24.638;2023-07-29T11:50:43;97069.06;;;35.57;23.60
10464;BME280;5279;42.048;24.638;2023-07-29T11:53:11;97075.78;;;35.74;23.94
10464;BME280;5279;42.048;24.638;2023-07-29T11:55:39;97069.03;;;35.97;23.18
10464;BME280;5279;42.048;24.638;2023-07-29T11:58:05;97062.88;;;36.00;21.60
10464;BME280;5279;42.048;24.638;2023-07-29T12:00:33;97061.63;;;36.14;22.90
10464;BME280;5279;42.048;24.638;2023-07-29T12:03:01;97055.31;;;36.14;21.54
10464;BME280;5279;42.048;24.638;2023-07-29T12:05:28;97054.34;;;36.10;22.60
10464;BME280;5279;42.048;24.638;2023-07-29T12:07:57;97056.53;;;35.91;22.88
10464;BME280;5279;42.048;24.638;2023-07-29T12:10:25;97045.31;;;35.87;23.68
10464;BME280;5279;42.048;24.638;2023-07-29T12:12:52;97047.59;;;35.85;23.96
10464;BME280;5279;42.048;24.638;2023-07-29T12:15:26;97060.75;;;35.97;23.38
10464;BME280;5279;42.048;24.638;2023-07-29T12:17:55;97050.72;;;36.01;23.62
10464;BME280;5279;42.048;24.638;2023-07-29T12:20:26;97044.59;;;36.21;24.30
10464;BME280;5279;42.048;24.638;2023-07-29T12:22:54;97036.00;;;36.40;23.01
10464;BME280;5279;42.048;24.638;2023-07-29T12:25:22;97035.53;;;36.46;23.15
10464;BME280;5279;42.048;24.638;2023-07-29T12:27:49;97028.25;;;36.50;22.22
10464;BME280;5279;42.048;24.638;2023-07-29T12:30:20;97030.53;;;36.57;21.57
10464;BME280;5279;42.048;24.638;2023-07-29T12:32:47;97026.13;;;36.47;21.14
10464;BME280;5279;42.048;24.638;2023-07-29T12:35:14;97014.13;;;36.17;22.49
10464;BME280;5279;42.048;24.638;2023-07-29T12:37:41;97021.47;;;35.83;22.44
10464;BME280;5279;42.048;24.638;2023-07-29T12:40:22;97018.94;;;35.55;22.17
10464;BME280;5279;42.048;24.638;2023-07-29T12:42:50;97021.63;;;35.38;23.87
10464;BME280;5279;42.048;24.638;2023-07-29T12:45:17;97016.03;;;35.21;23.88
10464;BME280;5279;42.048;24.638;2023-07-29T12:47:44;97020.38;;;35.14;23.82
10464;BME280;5279;42.048;24.638;2023-07-29T12:50:11;97010.56;;;34.99;24.46
10464;BME280;5279;42.048;24.638;2023-07-29T12:52:38;97031.09;;;34.93;24.12
10464;BME280;5279;42.048;24.638;2023-07-29T12:55:06;97015.53;;;34.97;23.84
10464;BME280;5279;42.048;24.638;2023-07-29T12:57:36;97027.34;;;34.89;24.93
10464;BME280;5279;42.048;24.638;2023-07-29T13:00:03;97021.31;;;35.09;24.89
10464;BME280;5279;42.048;24.638;2023-07-29T13:02:31;97020.69;;;35.12;24.38
10464;BME280;5279;42.048;24.638;2023-07-29T13:04:58;97024.19;;;35.26;24.37
10464;BME280;5279;42.048;24.638;2023-07-29T13:07:25;97023.88;;;35.36;24.71
10464;BME280;5279;42.048;24.638;2023-07-29T13:09:52;97020.78;;;35.29;24.30
10464;BME280;5279;42.048;24.638;2023-07-29T13:12:18;97023.13;;;35.14;24.31